createdAt,value
2022-09-12T00:00:51.042Z,96.65
2022-09-12T00:03:17.580Z,97.09
2022-09-12T00:05:46.207Z,96.89
2022-09-12T00:08:13.661Z,97.00
2022-09-12T00:10:41.646Z,96.88
2022-09-12T00:13:09.002Z,96.68
2022-09-12T00:15:43.582Z,96.63
2022-09-12T00:18:13.818Z,96.18
2022-09-12T00:20:45.172Z,96.44
2022-09-12T00:23:12.099Z,96.22
2022-09-12T00:25:47.527Z,96.69
2022-09-12T00:28:17.086Z,96.36
2022-09-12T00:30:45.578Z,96.21
2022-09-12T00:33:12.389Z,96.20
2022-09-12T00:35:47.666Z,96.40
2022-09-12T00:38:16.298Z,96.73
2022-09-12T00:40:43.533Z,96.81
2022-09-12T00:43:32.275Z,96.98
2022-09-12T00:46:04.766Z,96.52
2022-09-12T00:48:41.878Z,97.05
2022-09-12T00:51:09.269Z,96.82
2022-09-12T00:53:36.085Z,96.72
2022-09-12T00:56:02.799Z,96.71
2022-09-12T00:58:36.902Z,96.40
2022-09-12T01:01:03.688Z,96.43
2022-09-12T01:03:31.437Z,95.89
2022-09-12T01:06:20.497Z,95.80
2022-09-12T01:08:49.676Z,95.47
2022-09-12T01:11:16.773Z,95.39
2022-09-12T01:13:44.930Z,95.19
2022-09-12T01:16:11.491Z,94.79
2022-09-12T01:18:59.942Z,95.04
2022-09-12T01:21:52.779Z,94.96
2022-09-12T01:24:37.400Z,94.95
2022-09-12T01:27:32.315Z,94.77
2022-09-12T01:30:06.418Z,94.51
2022-09-12T01:32:47.163Z,93.95
2022-09-12T01:35:22.872Z,94.18
2022-09-12T01:38:24.786Z,94.11
2022-09-12T01:40:54.409Z,94.15
2022-09-12T01:43:41.928Z,94.00
2022-09-12T01:46:21.327Z,94.02
2022-09-12T01:48:56.934Z,94.10
2022-09-12T01:51:30.143Z,94.23
2022-09-12T01:54:20.811Z,94.13
2022-09-12T01:56:51.639Z,94.33
2022-09-12T01:59:27.473Z,94.12
2022-09-12T02:02:02.015Z,94.54
2022-09-12T02:04:40.007Z,94.14
2022-09-12T02:07:14.299Z,94.11
2022-09-12T02:09:59.621Z,94.58
2022-09-12T02:12:33.852Z,94.68
2022-09-12T02:15:07.158Z,94.78
2022-09-12T02:17:39.038Z,94.30
2022-09-12T02:20:21.349Z,94.50
2022-09-12T02:23:00.566Z,94.69
2022-09-12T02:25:30.346Z,94.64
2022-09-12T02:28:05.783Z,94.56
2022-09-12T02:30:43.215Z,94.35
2022-09-12T02:33:26.611Z,94.50
2022-09-12T02:36:03.879Z,94.03
2022-09-12T02:38:42.193Z,94.46
2022-09-12T02:41:09.064Z,94.51
2022-09-12T02:43:37.839Z,94.58
2022-09-12T02:46:09.156Z,94.61
2022-09-12T02:48:41.629Z,94.69
2022-09-12T02:51:08.478Z,94.33
2022-09-12T02:53:36.344Z,94.56
2022-09-12T02:56:08.018Z,94.72
2022-09-12T02:58:34.571Z,94.88
2022-09-12T03:01:10.163Z,94.41
2022-09-12T03:03:50.913Z,94.93
2022-09-12T03:06:39.870Z,94.52
2022-09-12T03:09:36.615Z,93.97
2022-09-12T03:12:21.663Z,94.27
2022-09-12T03:15:04.102Z,94.16
2022-09-12T03:17:52.389Z,93.73
2022-09-12T03:20:49.135Z,93.96
2022-09-12T03:23:33.155Z,94.16
2022-09-12T03:26:06.354Z,94.10
2022-09-12T03:28:35.356Z,93.87
2022-09-12T03:31:15.102Z,94.56
2022-09-12T03:33:41.919Z,95.08
2022-09-12T03:36:24.576Z,95.38
2022-09-12T03:38:52.340Z,95.71
2022-09-12T03:41:19.297Z,95.59
2022-09-12T03:43:46.122Z,95.53
2022-09-12T03:46:13.531Z,95.66
2022-09-12T03:48:40.877Z,95.69
2022-09-12T03:51:10.162Z,95.55
2022-09-12T03:53:37.154Z,95.57
2022-09-12T03:56:11.403Z,95.05
2022-09-12T03:58:38.621Z,95.35
2022-09-12T04:01:12.966Z,95.46
2022-09-12T04:03:40.900Z,94.98
2022-09-12T04:06:09.090Z,95.26
2022-09-12T04:08:36.283Z,94.42
2022-09-12T04:11:09.761Z,95.11
2022-09-12T04:13:37.541Z,94.97
2022-09-12T04:16:04.974Z,94.55
2022-09-12T04:18:31.835Z,94.51
2022-09-12T04:20:58.357Z,94.74
2022-09-12T04:23:25.113Z,94.36
2022-09-12T04:26:00.324Z,93.92
2022-09-12T04:28:29.188Z,93.97
2022-09-12T04:30:56.813Z,94.55
2022-09-12T04:33:23.389Z,94.23
2022-09-12T04:35:50.546Z,94.21
2022-09-12T04:38:16.964Z,94.20
2022-09-12T04:40:43.390Z,94.55
2022-09-12T04:43:14.300Z,94.24
2022-09-12T04:45:41.221Z,94.02
2022-09-12T04:48:07.621Z,93.99
2022-09-12T04:50:34.263Z,94.00
2022-09-12T04:53:00.718Z,94.02
2022-09-12T04:55:28.275Z,94.10
2022-09-12T04:57:54.657Z,94.34
2022-09-12T05:00:21.222Z,94.17
2022-09-12T05:02:47.819Z,94.49
2022-09-12T05:05:14.479Z,94.06
2022-09-12T05:07:40.872Z,93.69
2022-09-12T05:10:08.029Z,94.01
2022-09-12T05:12:34.625Z,93.64
2022-09-12T05:15:03.253Z,93.65
2022-09-12T05:17:30.119Z,94.37
2022-09-12T05:19:56.764Z,94.19
2022-09-12T05:22:23.129Z,94.53
2022-09-12T05:24:50.666Z,94.54
2022-09-12T05:27:17.453Z,94.14
2022-09-12T05:29:43.878Z,94.67
2022-09-12T05:32:10.322Z,94.43
2022-09-12T05:34:37.887Z,94.49
2022-09-12T05:37:04.406Z,93.91
2022-09-12T05:39:30.955Z,94.17
2022-09-12T05:41:57.544Z,94.27
2022-09-12T05:44:24.819Z,94.18
2022-09-12T05:46:53.627Z,94.44
2022-09-12T05:49:21.411Z,94.15
2022-09-12T05:51:48.376Z,94.01
2022-09-12T05:54:17.731Z,94.27
2022-09-12T05:56:44.899Z,94.65
2022-09-12T05:59:17.288Z,94.67
2022-09-12T06:01:44.746Z,94.65
2022-09-12T06:04:12.038Z,94.58
2022-09-12T06:06:41.723Z,94.83
2022-09-12T06:09:09.101Z,95.06
2022-09-12T06:11:37.307Z,95.13
2022-09-12T06:14:04.423Z,95.08
2022-09-12T06:16:32.809Z,95.23
2022-09-12T06:19:02.009Z,95.43
2022-09-12T06:21:31.400Z,95.38
2022-09-12T06:24:02.088Z,95.02
2022-09-12T06:26:29.277Z,95.17
2022-09-12T06:28:57.470Z,95.49
2022-09-12T06:31:27.193Z,95.36
2022-09-12T06:33:54.911Z,95.78
2022-09-12T06:36:28.692Z,95.79
2022-09-12T06:38:57.696Z,95.79
2022-09-12T06:41:25.563Z,95.54
2022-09-12T06:43:53.114Z,95.92
2022-09-12T06:46:19.649Z,95.39
2022-09-12T06:48:46.640Z,95.40
2022-09-12T06:51:15.716Z,95.51
2022-09-12T06:53:44.215Z,95.24
2022-09-12T06:56:19.195Z,95.20
2022-09-12T06:58:47.327Z,94.90
2022-09-12T07:01:16.554Z,95.70
2022-09-12T07:03:47.784Z,95.93
2022-09-12T07:06:16.648Z,96.17
2022-09-12T07:08:43.197Z,95.81
2022-09-12T07:11:14.891Z,95.33
2022-09-12T07:13:42.903Z,95.82
2022-09-12T07:16:10.652Z,95.71
2022-09-12T07:18:38.500Z,95.92
2022-09-12T07:21:07.741Z,95.85
2022-09-12T07:23:34.405Z,95.71
2022-09-12T07:26:03.308Z,95.71
2022-09-12T07:28:32.727Z,95.71
2022-09-12T07:31:24.691Z,95.48
2022-09-12T07:33:54.596Z,95.59
2022-09-12T07:36:25.263Z,95.63
2022-09-12T07:38:57.538Z,95.62
2022-09-12T07:41:30.156Z,94.97
2022-09-12T07:43:59.493Z,95.34
2022-09-12T07:46:29.568Z,95.00
2022-09-12T07:48:58.012Z,95.23
2022-09-12T07:51:25.642Z,95.18
2022-09-12T07:53:52.440Z,95.23
2022-09-12T07:56:19.885Z,94.10
2022-09-12T07:58:47.160Z,93.96
2022-09-12T08:01:19.162Z,93.80
2022-09-12T08:03:49.348Z,93.80
2022-09-12T08:06:21.545Z,93.88
2022-09-12T08:08:48.744Z,93.70
2022-09-12T08:11:17.371Z,92.98
2022-09-12T08:13:45.261Z,92.22
2022-09-12T08:16:20.960Z,91.50
2022-09-12T08:18:48.543Z,90.63
2022-09-12T08:21:29.331Z,89.91
2022-09-12T08:24:02.072Z,89.76
2022-09-12T08:26:28.992Z,88.29
2022-09-12T08:28:55.815Z,87.52
2022-09-12T08:31:24.714Z,85.52
2022-09-12T08:33:51.854Z,84.54
2022-09-12T08:36:21.319Z,83.55
2022-09-12T08:38:50.469Z,83.02
2022-09-12T08:41:28.118Z,82.66
2022-09-12T08:44:04.431Z,82.22
2022-09-12T08:46:50.420Z,80.64
2022-09-12T08:49:27.717Z,79.66
2022-09-12T08:51:56.233Z,78.95
2022-09-12T08:54:28.772Z,78.69
2022-09-12T08:57:05.277Z,77.46
2022-09-12T08:59:41.519Z,77.23
2022-09-12T09:02:40.121Z,75.47
2022-09-12T09:05:44.539Z,74.69
2022-09-12T09:08:36.024Z,74.08
2022-09-12T09:11:06.241Z,73.50
2022-09-12T09:14:09.679Z,72.28
2022-09-12T09:16:44.882Z,70.96
2022-09-12T09:19:18.686Z,68.83
2022-09-12T09:21:49.408Z,70.08
2022-09-12T09:24:19.508Z,70.21
2022-09-12T09:27:02.922Z,69.75
2022-09-12T09:29:49.436Z,68.95
2022-09-12T09:32:31.829Z,67.39
2022-09-12T09:34:58.896Z,66.37
2022-09-12T09:37:39.528Z,66.89
2022-09-12T09:40:23.819Z,65.34
2022-09-12T09:43:19.706Z,65.46
2022-09-12T09:45:47.909Z,65.26
2022-09-12T09:48:19.315Z,65.62
2022-09-12T09:50:49.413Z,65.64
2022-09-12T09:53:41.686Z,65.06
2022-09-12T09:56:31.106Z,63.95
2022-09-12T09:58:57.951Z,63.98
2022-09-12T10:01:26.939Z,63.13
2022-09-12T10:03:59.891Z,62.72
2022-09-12T10:06:32.613Z,61.08
2022-09-12T10:09:33.000Z,59.88
2022-09-12T10:12:19.145Z,59.82
2022-09-12T10:14:57.843Z,59.96
2022-09-12T10:17:34.098Z,58.47
2022-09-12T10:20:20.409Z,59.79
2022-09-12T10:22:49.777Z,57.28
2022-09-12T10:25:18.363Z,57.12
2022-09-12T10:27:44.800Z,57.16
2022-09-12T10:30:19.623Z,57.49
2022-09-12T10:32:53.993Z,56.05
2022-09-12T10:35:23.449Z,56.47
2022-09-12T10:38:24.455Z,54.94
2022-09-12T10:41:04.757Z,55.79
2022-09-12T10:43:35.876Z,54.55
2022-09-12T10:46:14.822Z,54.17
2022-09-12T10:48:42.976Z,53.91
2022-09-12T10:51:24.640Z,54.91
2022-09-12T10:53:54.710Z,54.39
2022-09-12T10:56:33.654Z,55.20
2022-09-12T10:59:19.927Z,54.52
2022-09-12T11:02:00.579Z,54.25
2022-09-12T11:04:31.039Z,54.00
2022-09-12T11:07:22.555Z,53.54
2022-09-12T11:10:18.173Z,54.75
2022-09-12T11:12:50.624Z,53.32
2022-09-12T11:15:31.938Z,52.10
2022-09-12T11:18:18.643Z,52.87
2022-09-12T11:21:03.357Z,53.38
2022-09-12T11:24:08.959Z,52.49
2022-09-12T11:26:50.713Z,52.81
2022-09-12T11:29:31.700Z,52.76
2022-09-12T11:32:30.962Z,53.01
2022-09-12T11:35:27.551Z,53.51
2022-09-12T11:38:25.390Z,52.62
2022-09-12T11:40:59.003Z,52.81
2022-09-12T11:43:34.585Z,53.00
2022-09-12T11:46:25.003Z,51.98
2022-09-12T11:49:03.717Z,52.22
2022-09-12T11:51:56.370Z,51.11
2022-09-12T11:54:41.579Z,50.25
2022-09-12T11:57:15.987Z,51.19
2022-09-12T11:59:51.740Z,50.12
2022-09-12T12:02:26.073Z,51.48
2022-09-12T12:05:02.915Z,49.99
2022-09-12T12:07:41.162Z,49.74
2022-09-12T12:10:32.902Z,49.50
2022-09-12T12:13:02.842Z,48.17
2022-09-12T12:15:55.414Z,48.99
2022-09-12T12:18:27.818Z,49.64
2022-09-12T12:20:55.935Z,48.62
2022-09-12T12:23:34.060Z,48.48
2022-09-12T12:26:03.479Z,49.04
2022-09-12T12:28:53.339Z,49.15
2022-09-12T12:31:19.936Z,47.16
2022-09-12T12:33:46.398Z,46.86
2022-09-12T12:36:34.034Z,46.19
2022-09-12T12:39:33.140Z,48.04
2022-09-12T12:42:03.717Z,47.31
2022-09-12T12:44:45.203Z,48.82
2022-09-12T12:47:20.098Z,48.47
2022-09-12T12:49:57.409Z,48.81
2022-09-12T12:52:27.955Z,47.11
2022-09-12T12:54:57.713Z,45.81
2022-09-12T12:57:46.394Z,46.11
2022-09-12T13:00:25.115Z,47.56
2022-09-12T13:02:58.139Z,48.34
2022-09-12T13:05:27.475Z,48.22
2022-09-12T13:08:04.653Z,48.14
2022-09-12T13:10:32.095Z,46.53
2022-09-12T13:13:05.138Z,46.47
2022-09-12T13:15:37.801Z,46.77
2022-09-12T13:18:09.321Z,44.95
2022-09-12T13:21:09.936Z,46.40
2022-09-12T13:23:36.664Z,46.34
2022-09-12T13:26:10.402Z,46.09
2022-09-12T13:28:37.138Z,46.19
2022-09-12T13:31:10.761Z,46.02
2022-09-12T13:33:46.540Z,45.87
2022-09-12T13:36:38.101Z,45.71
2022-09-12T13:39:04.791Z,45.08
2022-09-12T13:41:56.121Z,43.95
2022-09-12T13:44:24.485Z,45.08
2022-09-12T13:46:52.378Z,45.22
2022-09-12T13:49:37.166Z,45.52
2022-09-12T13:52:17.991Z,45.49
2022-09-12T13:54:48.761Z,45.00
2022-09-12T13:57:41.260Z,45.76
2022-09-12T14:00:19.978Z,45.65
2022-09-12T14:02:48.615Z,44.81
2022-09-12T14:05:24.673Z,44.57
2022-09-12T14:07:54.958Z,44.35
2022-09-12T14:10:31.101Z,44.47
2022-09-12T14:13:01.154Z,44.67
2022-09-12T14:15:31.448Z,44.66
2022-09-12T14:18:02.130Z,44.58
2022-09-12T14:20:32.529Z,44.43
2022-09-12T14:23:14.863Z,44.71
2022-09-12T14:25:47.914Z,44.69
2022-09-12T14:28:22.776Z,45.01
2022-09-12T14:31:29.677Z,44.54
2022-09-12T14:34:09.618Z,44.35
2022-09-12T14:36:57.423Z,43.29
2022-09-12T14:39:41.119Z,43.56
2022-09-12T14:42:15.427Z,44.00
2022-09-12T14:44:55.832Z,43.67
2022-09-12T14:47:26.537Z,43.98
2022-09-12T14:49:53.305Z,43.70
2022-09-12T14:52:33.286Z,44.11
2022-09-12T14:55:16.641Z,43.73
2022-09-12T14:57:44.495Z,43.66
2022-09-12T15:00:20.294Z,43.55
2022-09-12T15:02:49.710Z,43.87
2022-09-12T15:05:23.028Z,43.59
2022-09-12T15:07:57.308Z,43.51
2022-09-12T15:10:28.272Z,43.52
2022-09-12T15:13:09.705Z,43.02
2022-09-12T15:15:37.796Z,43.44
2022-09-12T15:18:07.065Z,43.91
2022-09-12T15:20:37.129Z,43.66
2022-09-12T15:23:04.181Z,43.64
2022-09-12T15:25:31.461Z,44.16
2022-09-12T15:27:57.905Z,44.37
2022-09-12T15:30:24.328Z,44.18
2022-09-12T15:32:54.898Z,44.22
2022-09-12T15:35:25.485Z,44.67
2022-09-12T15:37:52.350Z,44.54
2022-09-12T15:40:18.981Z,45.27
2022-09-12T15:42:45.628Z,44.92
2022-09-12T15:45:18.755Z,45.21
2022-09-12T15:47:45.586Z,45.32
2022-09-12T15:50:12.074Z,45.20
2022-09-12T15:52:39.239Z,45.35
2022-09-12T15:55:12.438Z,45.18
2022-09-12T15:57:40.366Z,44.76
2022-09-12T16:00:07.951Z,44.73
2022-09-12T16:02:38.471Z,45.23
2022-09-12T16:05:06.133Z,45.49
2022-09-12T16:07:32.825Z,45.32
2022-09-12T16:10:00.508Z,46.25
2022-09-12T16:12:27.495Z,46.50
2022-09-12T16:14:53.938Z,46.37
2022-09-12T16:17:20.448Z,46.96
2022-09-12T16:19:46.932Z,46.99
2022-09-12T16:22:13.447Z,46.94
2022-09-12T16:24:40.209Z,47.20
2022-09-12T16:27:06.889Z,47.85
2022-09-12T16:29:33.589Z,47.81
2022-09-12T16:32:00.750Z,48.12
2022-09-12T16:34:27.413Z,48.23
2022-09-12T16:36:53.848Z,48.74
2022-09-12T16:39:20.434Z,49.18
2022-09-12T16:41:46.990Z,49.30
2022-09-12T16:44:13.629Z,49.68
2022-09-12T16:46:40.059Z,49.68
2022-09-12T16:49:07.055Z,50.04
2022-09-12T16:51:37.568Z,50.24
2022-09-12T16:54:04.997Z,50.77
2022-09-12T16:56:56.785Z,50.53
2022-09-12T16:59:23.190Z,50.83
2022-09-12T17:01:50.028Z,51.05
2022-09-12T17:04:18.055Z,51.41
2022-09-12T17:06:47.182Z,52.29
2022-09-12T17:09:18.750Z,52.04
2022-09-12T17:11:50.690Z,52.36
2022-09-12T17:14:17.338Z,52.45
2022-09-12T17:16:51.506Z,52.69
2022-09-12T17:19:29.537Z,53.30
2022-09-12T17:21:57.269Z,53.68
2022-09-12T17:24:24.203Z,53.37
2022-09-12T17:26:51.699Z,53.92
2022-09-12T17:29:18.262Z,54.43
2022-09-12T17:31:45.231Z,54.53
2022-09-12T17:34:16.212Z,55.34
2022-09-12T17:36:48.849Z,55.54
2022-09-12T17:39:15.692Z,55.81
2022-09-12T17:41:42.850Z,56.00
2022-09-12T17:44:12.418Z,56.39
2022-09-12T17:46:40.007Z,56.92
2022-09-12T17:49:18.551Z,56.89
2022-09-12T17:51:45.330Z,57.22
2022-09-12T17:54:16.086Z,57.75
2022-09-12T17:56:44.258Z,58.05
2022-09-12T17:59:14.310Z,57.92
2022-09-12T18:02:04.615Z,58.52
2022-09-12T18:04:31.540Z,58.44
2022-09-12T18:07:00.268Z,58.52
2022-09-12T18:09:27.903Z,59.01
2022-09-12T18:11:54.702Z,58.88
2022-09-12T18:14:21.530Z,59.25
2022-09-12T18:16:49.664Z,59.32
2022-09-12T18:19:16.626Z,59.78
2022-09-12T18:21:43.192Z,59.69
2022-09-12T18:24:10.623Z,59.97
2022-09-12T18:26:37.075Z,59.75
2022-09-12T18:29:03.986Z,60.10
2022-09-12T18:31:34.302Z,60.38
2022-09-12T18:34:02.451Z,59.83
2022-09-12T18:36:30.287Z,59.94
2022-09-12T18:38:58.566Z,60.46
2022-09-12T18:41:26.359Z,60.05
2022-09-12T18:43:58.018Z,60.38
2022-09-12T18:46:25.328Z,60.17
2022-09-12T18:48:52.298Z,60.49
2022-09-12T18:51:21.118Z,60.46
2022-09-12T18:53:56.230Z,60.66
2022-09-12T18:56:28.647Z,60.33
2022-09-12T18:58:56.594Z,60.59
2022-09-12T19:01:25.448Z,60.39
2022-09-12T19:03:53.171Z,60.56
2022-09-12T19:06:28.287Z,60.45
2022-09-12T19:08:55.958Z,60.96
2022-09-12T19:11:24.090Z,60.80
2022-09-12T19:13:52.316Z,61.07
2022-09-12T19:16:22.082Z,61.61
2022-09-12T19:18:49.760Z,61.66
2022-09-12T19:21:19.210Z,62.37
2022-09-12T19:23:46.295Z,62.56
2022-09-12T19:26:14.275Z,61.97
2022-09-12T19:28:40.802Z,62.35
2022-09-12T19:31:09.356Z,62.69
2022-09-12T19:33:35.968Z,62.50
2022-09-12T19:36:13.866Z,63.15
2022-09-12T19:38:54.954Z,63.08
2022-09-12T19:41:21.668Z,63.46
2022-09-12T19:43:50.256Z,63.91
2022-09-12T19:46:18.491Z,64.05
2022-09-12T19:48:45.709Z,63.92
2022-09-12T19:51:12.867Z,64.38
2022-09-12T19:53:39.503Z,64.37
2022-09-12T19:56:06.063Z,64.61
2022-09-12T19:58:38.150Z,64.66
2022-09-12T20:01:10.380Z,64.78
2022-09-12T20:03:37.219Z,65.25
2022-09-12T20:06:05.745Z,65.45
2022-09-12T20:08:33.803Z,65.29
2022-09-12T20:11:00.941Z,65.51
2022-09-12T20:13:28.133Z,66.04
2022-09-12T20:15:54.649Z,66.40
2022-09-12T20:18:21.223Z,66.58
2022-09-12T20:20:47.899Z,66.79
2022-09-12T20:23:14.527Z,67.12
2022-09-12T20:25:40.999Z,67.58
2022-09-12T20:28:07.738Z,67.86
2022-09-12T20:30:34.394Z,68.27
2022-09-12T20:33:01.898Z,68.37
2022-09-12T20:35:28.395Z,68.59
2022-09-12T20:37:54.813Z,69.19
2022-09-12T20:40:21.383Z,69.18
2022-09-12T20:42:48.301Z,69.43
2022-09-12T20:45:15.167Z,69.77
2022-09-12T20:47:41.605Z,70.03
2022-09-12T20:50:08.464Z,69.95
2022-09-12T20:52:35.295Z,70.40
2022-09-12T20:55:05.343Z,70.21
2022-09-12T20:57:31.815Z,70.70
2022-09-12T20:59:58.720Z,70.92
2022-09-12T21:02:25.243Z,70.61
2022-09-12T21:04:52.349Z,71.09
2022-09-12T21:07:18.760Z,72.09
2022-09-12T21:09:45.272Z,72.44
2022-09-12T21:12:11.673Z,72.30
2022-09-12T21:14:38.106Z,72.93
2022-09-12T21:17:05.318Z,72.45
2022-09-12T21:19:31.927Z,72.84
2022-09-12T21:21:58.552Z,72.59
2022-09-12T21:24:24.949Z,72.88
2022-09-12T21:26:51.432Z,73.03
2022-09-12T21:29:17.854Z,72.72
2022-09-12T21:31:44.585Z,72.82
2022-09-12T21:34:11.049Z,72.86
2022-09-12T21:36:38.145Z,72.53
2022-09-12T21:39:05.269Z,72.98
2022-09-12T21:41:35.416Z,73.10
2022-09-12T21:44:02.864Z,73.42
2022-09-12T21:46:29.300Z,74.44
2022-09-12T21:48:55.791Z,74.37
2022-09-12T21:51:22.297Z,74.82
2022-09-12T21:53:49.177Z,75.00
2022-09-12T21:56:16.007Z,75.19
2022-09-12T21:58:42.419Z,76.05
2022-09-12T22:01:12.227Z,76.38
2022-09-12T22:03:38.866Z,75.97
2022-09-12T22:06:06.690Z,76.32
2022-09-12T22:08:34.742Z,76.39
2022-09-12T22:11:04.501Z,76.45
2022-09-12T22:13:32.310Z,76.67
2022-09-12T22:16:00.366Z,76.27
2022-09-12T22:18:26.909Z,76.56
2022-09-12T22:21:24.350Z,76.24
2022-09-12T22:24:09.961Z,76.45
2022-09-12T22:26:44.592Z,76.71
2022-09-12T22:29:13.170Z,76.88
2022-09-12T22:31:39.964Z,77.36
2022-09-12T22:34:06.660Z,77.73
2022-09-12T22:36:38.175Z,77.88
2022-09-12T22:39:06.059Z,78.58
2022-09-12T22:41:32.855Z,78.51
2022-09-12T22:43:59.763Z,78.67
2022-09-12T22:46:27.546Z,78.16
2022-09-12T22:48:55.601Z,78.21
2022-09-12T22:51:22.025Z,78.50
2022-09-12T22:53:49.357Z,77.86
2022-09-12T22:56:16.119Z,78.13
2022-09-12T22:58:43.457Z,77.45
2022-09-12T23:01:10.495Z,77.71
2022-09-12T23:03:37.152Z,77.24
2022-09-12T23:06:05.516Z,77.12
2022-09-12T23:08:35.681Z,76.98
2022-09-12T23:11:09.348Z,77.13
2022-09-12T23:13:37.073Z,76.86
2022-09-12T23:16:06.149Z,76.55
2022-09-12T23:18:36.449Z,75.95
2022-09-12T23:21:09.167Z,75.44
2022-09-12T23:23:35.927Z,75.25
2022-09-12T23:26:02.895Z,75.37
2022-09-12T23:28:30.547Z,74.71
2022-09-12T23:30:57.396Z,74.90
2022-09-12T23:33:23.915Z,74.81
2022-09-12T23:35:50.983Z,74.62
2022-09-12T23:38:17.542Z,74.57
2022-09-12T23:40:43.905Z,74.40
2022-09-12T23:43:10.347Z,74.46
2022-09-12T23:45:37.011Z,74.67
2022-09-12T23:48:04.119Z,74.93
2022-09-12T23:50:30.703Z,74.62
2022-09-12T23:52:57.135Z,74.67
2022-09-12T23:55:24.470Z,74.52
2022-09-12T23:57:51.145Z,74.76
